sensor_id;sensor_type;location;lat;lon;timestamp;P1;durP1;ratioP1;P2;durP2;ratioP2
61085;SDS011;46967;48.876;2.136;2023-06-26T00:01:14;5.68;;;2.03;;
61085;SDS011;46967;48.876;2.136;2023-06-26T00:03:39;5.35;;;2.30;;
61085;SDS011;46967;48.876;2.136;2023-06-26T00:06:04;5.05;;;2.20;;
61085;SDS011;46967;48.876;2.136;2023-06-26T00:08:30;4.38;;;2.08;;
61085;SDS011;46967;48.876;2.136;2023-06-26T00:10:55;5.47;;;2.53;;
61085;SDS011;46967;48.876;2.136;2023-06-26T00:13:21;5.82;;;2.05;;
61085;SDS011;46967;48.876;2.136;2023-06-26T00:15:47;5.38;;;1.88;;
61085;SDS011;46967;48.876;2.136;2023-06-26T00:18:13;5.65;;;2.35;;
61085;SDS011;46967;48.876;2.136;2023-06-26T00:20:38;6.25;;;2.30;;
61085;SDS011;46967;48.876;2.136;2023-06-26T00:23:03;4.78;;;2.30;;
61085;SDS011;46967;48.876;2.136;2023-06-26T00:25:32;9.13;;;2.78;;
61085;SDS011;46967;48.876;2.136;2023-06-26T00:27:58;5.65;;;1.95;;
61085;SDS011;46967;48.876;2.136;2023-06-26T00:30:23;6.00;;;2.47;;
61085;SDS011;46967;48.876;2.136;2023-06-26T00:32:48;4.53;;;2.17;;
61085;SDS011;46967;48.876;2.136;2023-06-26T00:35:14;7.72;;;2.08;;
61085;SDS011;46967;48.876;2.136;2023-06-26T00:37:39;6.90;;;2.20;;
61085;SDS011;46967;48.876;2.136;2023-06-26T00:40:04;3.30;;;1.77;;
61085;SDS011;46967;48.876;2.136;2023-06-26T00:42:30;6.13;;;2.20;;
61085;SDS011;46967;48.876;2.136;2023-06-26T00:44:55;5.15;;;2.05;;
61085;SDS011;46967;48.876;2.136;2023-06-26T00:47:21;6.88;;;1.65;;
61085;SDS011;46967;48.876;2.136;2023-06-26T00:49:46;6.53;;;2.00;;
61085;SDS011;46967;48.876;2.136;2023-06-26T00:52:12;5.75;;;2.17;;
61085;SDS011;46967;48.876;2.136;2023-06-26T00:54:37;7.05;;;1.88;;
61085;SDS011;46967;48.876;2.136;2023-06-26T00:57:03;7.15;;;1.75;;
61085;SDS011;46967;48.876;2.136;2023-06-26T00:59:29;7.40;;;1.73;;
61085;SDS011;46967;48.876;2.136;2023-06-26T01:01:54;6.25;;;1.77;;
61085;SDS011;46967;48.876;2.136;2023-06-26T01:04:19;7.93;;;2.15;;
61085;SDS011;46967;48.876;2.136;2023-06-26T01:06:48;5.00;;;2.00;;
61085;SDS011;46967;48.876;2.136;2023-06-26T01:09:17;6.80;;;2.15;;
61085;SDS011;46967;48.876;2.136;2023-06-26T01:11:44;7.40;;;2.00;;
61085;SDS011;46967;48.876;2.136;2023-06-26T01:14:10;6.32;;;2.05;;
61085;SDS011;46967;48.876;2.136;2023-06-26T01:16:35;5.25;;;1.50;;
61085;SDS011;46967;48.876;2.136;2023-06-26T01:19:01;6.50;;;1.80;;
61085;SDS011;46967;48.876;2.136;2023-06-26T01:21:27;9.75;;;1.85;;
61085;SDS011;46967;48.876;2.136;2023-06-26T01:26:32;14.90;;;1.80;;
61085;SDS011;46967;48.876;2.136;2023-06-26T01:29:03;5.90;;;1.65;;
61085;SDS011;46967;48.876;2.136;2023-06-26T01:31:31;7.85;;;1.50;;
61085;SDS011;46967;48.876;2.136;2023-06-26T01:33:58;5.60;;;1.70;;
61085;SDS011;46967;48.876;2.136;2023-06-26T01:36:24;8.18;;;2.20;;
61085;SDS011;46967;48.876;2.136;2023-06-26T01:38:50;9.43;;;1.77;;
61085;SDS011;46967;48.876;2.136;2023-06-26T01:41:16;7.80;;;1.60;;
61085;SDS011;46967;48.876;2.136;2023-06-26T01:51:49;8.07;;;1.50;;
61085;SDS011;46967;48.876;2.136;2023-06-26T01:54:23;8.20;;;1.60;;
61085;SDS011;46967;48.876;2.136;2023-06-26T01:56:51;5.82;;;1.40;;
61085;SDS011;46967;48.876;2.136;2023-06-26T01:59:19;9.02;;;1.98;;
61085;SDS011;46967;48.876;2.136;2023-06-26T02:01:47;11.32;;;1.55;;
61085;SDS011;46967;48.876;2.136;2023-06-26T02:04:12;11.73;;;1.85;;
61085;SDS011;46967;48.876;2.136;2023-06-26T02:06:38;6.15;;;1.50;;
61085;SDS011;46967;48.876;2.136;2023-06-26T02:09:03;12.43;;;1.65;;
61085;SDS011;46967;48.876;2.136;2023-06-26T02:11:29;6.55;;;1.30;;
61085;SDS011;46967;48.876;2.136;2023-06-26T02:13:54;8.25;;;1.88;;
61085;SDS011;46967;48.876;2.136;2023-06-26T02:16:19;7.25;;;1.52;;
61085;SDS011;46967;48.876;2.136;2023-06-26T02:18:45;11.73;;;2.30;;
61085;SDS011;46967;48.876;2.136;2023-06-26T02:21:10;8.13;;;1.50;;
61085;SDS011;46967;48.876;2.136;2023-06-26T02:23:35;6.43;;;1.95;;
61085;SDS011;46967;48.876;2.136;2023-06-26T02:26:01;4.50;;;1.63;;
61085;SDS011;46967;48.876;2.136;2023-06-26T02:28:26;5.70;;;1.77;;
61085;SDS011;46967;48.876;2.136;2023-06-26T02:30:51;7.15;;;1.50;;
61085;SDS011;46967;48.876;2.136;2023-06-26T02:33:17;5.28;;;1.50;;
61085;SDS011;46967;48.876;2.136;2023-06-26T02:35:42;7.35;;;1.80;;
61085;SDS011;46967;48.876;2.136;2023-06-26T02:38:07;9.02;;;1.45;;
61085;SDS011;46967;48.876;2.136;2023-06-26T02:40:33;11.52;;;2.05;;
61085;SDS011;46967;48.876;2.136;2023-06-26T02:42:58;7.25;;;1.38;;
61085;SDS011;46967;48.876;2.136;2023-06-26T02:45:24;6.07;;;1.80;;
61085;SDS011;46967;48.876;2.136;2023-06-26T02:47:49;7.88;;;1.55;;
61085;SDS011;46967;48.876;2.136;2023-06-26T02:50:14;10.15;;;2.03;;
61085;SDS011;46967;48.876;2.136;2023-06-26T02:52:40;6.75;;;1.50;;
61085;SDS011;46967;48.876;2.136;2023-06-26T02:55:05;9.07;;;1.75;;
61085;SDS011;46967;48.876;2.136;2023-06-26T02:57:31;7.43;;;1.50;;
61085;SDS011;46967;48.876;2.136;2023-06-26T02:59:56;8.35;;;1.30;;
61085;SDS011;46967;48.876;2.136;2023-06-26T03:02:21;8.70;;;1.60;;
61085;SDS011;46967;48.876;2.136;2023-06-26T03:04:47;6.80;;;1.60;;
61085;SDS011;46967;48.876;2.136;2023-06-26T03:07:12;8.77;;;1.80;;
61085;SDS011;46967;48.876;2.136;2023-06-26T03:09:37;7.72;;;1.83;;
61085;SDS011;46967;48.876;2.136;2023-06-26T03:12:03;11.50;;;2.03;;
61085;SDS011;46967;48.876;2.136;2023-06-26T03:14:28;9.85;;;1.70;;
61085;SDS011;46967;48.876;2.136;2023-06-26T03:16:55;15.45;;;1.98;;
61085;SDS011;46967;48.876;2.136;2023-06-26T03:19:23;8.52;;;1.88;;
61085;SDS011;46967;48.876;2.136;2023-06-26T03:21:48;9.60;;;1.80;;
61085;SDS011;46967;48.876;2.136;2023-06-26T03:24:13;7.20;;;1.80;;
61085;SDS011;46967;48.876;2.136;2023-06-26T03:26:39;11.70;;;1.85;;
61085;SDS011;46967;48.876;2.136;2023-06-26T03:29:04;7.97;;;1.77;;
61085;SDS011;46967;48.876;2.136;2023-06-26T03:31:29;7.00;;;1.83;;
61085;SDS011;46967;48.876;2.136;2023-06-26T03:33:55;13.25;;;2.20;;
61085;SDS011;46967;48.876;2.136;2023-06-26T03:36:20;9.68;;;2.00;;
61085;SDS011;46967;48.876;2.136;2023-06-26T03:38:45;9.88;;;1.83;;
61085;SDS011;46967;48.876;2.136;2023-06-26T03:41:11;7.00;;;2.03;;
61085;SDS011;46967;48.876;2.136;2023-06-26T03:43:36;8.00;;;1.80;;
61085;SDS011;46967;48.876;2.136;2023-06-26T03:46:01;8.80;;;1.67;;
61085;SDS011;46967;48.876;2.136;2023-06-26T03:48:27;9.02;;;1.88;;
61085;SDS011;46967;48.876;2.136;2023-06-26T03:50:52;6.95;;;1.60;;
61085;SDS011;46967;48.876;2.136;2023-06-26T03:53:18;11.45;;;1.83;;
61085;SDS011;46967;48.876;2.136;2023-06-26T03:55:43;11.65;;;1.92;;
61085;SDS011;46967;48.876;2.136;2023-06-26T03:58:08;12.20;;;2.10;;
61085;SDS011;46967;48.876;2.136;2023-06-26T04:00:34;9.75;;;2.45;;
61085;SDS011;46967;48.876;2.136;2023-06-26T04:02:59;14.15;;;1.90;;
61085;SDS011;46967;48.876;2.136;2023-06-26T04:05:24;6.53;;;1.58;;
61085;SDS011;46967;48.876;2.136;2023-06-26T04:07:50;9.88;;;2.10;;
61085;SDS011;46967;48.876;2.136;2023-06-26T04:10:17;6.55;;;1.85;;
61085;SDS011;46967;48.876;2.136;2023-06-26T04:12:42;8.98;;;1.95;;
61085;SDS011;46967;48.876;2.136;2023-06-26T04:15:08;9.27;;;1.55;;
61085;SDS011;46967;48.876;2.136;2023-06-26T04:17:33;9.30;;;1.70;;
61085;SDS011;46967;48.876;2.136;2023-06-26T04:19:59;7.78;;;1.67;;
61085;SDS011;46967;48.876;2.136;2023-06-26T04:22:24;7.80;;;1.38;;
61085;SDS011;46967;48.876;2.136;2023-06-26T04:24:50;8.50;;;1.98;;
61085;SDS011;46967;48.876;2.136;2023-06-26T04:27:16;7.82;;;1.90;;
61085;SDS011;46967;48.876;2.136;2023-06-26T04:29:42;7.38;;;1.77;;
61085;SDS011;46967;48.876;2.136;2023-06-26T04:32:07;8.40;;;1.60;;
61085;SDS011;46967;48.876;2.136;2023-06-26T04:34:33;8.45;;;1.83;;
61085;SDS011;46967;48.876;2.136;2023-06-26T04:36:59;10.43;;;2.30;;
61085;SDS011;46967;48.876;2.136;2023-06-26T04:39:24;8.80;;;1.60;;
61085;SDS011;46967;48.876;2.136;2023-06-26T04:41:50;6.75;;;1.75;;
61085;SDS011;46967;48.876;2.136;2023-06-26T04:44:15;6.68;;;2.15;;
61085;SDS011;46967;48.876;2.136;2023-06-26T04:46:40;8.00;;;1.67;;
61085;SDS011;46967;48.876;2.136;2023-06-26T04:49:06;7.22;;;1.60;;
61085;SDS011;46967;48.876;2.136;2023-06-26T04:51:34;11.32;;;1.92;;
61085;SDS011;46967;48.876;2.136;2023-06-26T04:54:05;13.80;;;1.98;;
61085;SDS011;46967;48.876;2.136;2023-06-26T04:56:34;10.73;;;1.88;;
61085;SDS011;46967;48.876;2.136;2023-06-26T04:59:00;7.97;;;2.03;;
61085;SDS011;46967;48.876;2.136;2023-06-26T05:01:26;5.70;;;1.52;;
61085;SDS011;46967;48.876;2.136;2023-06-26T05:03:54;8.18;;;2.20;;
61085;SDS011;46967;48.876;2.136;2023-06-26T05:06:19;8.85;;;2.00;;
61085;SDS011;46967;48.876;2.136;2023-06-26T05:08:45;5.97;;;1.88;;
61085;SDS011;46967;48.876;2.136;2023-06-26T05:11:10;11.15;;;2.20;;
61085;SDS011;46967;48.876;2.136;2023-06-26T05:13:35;9.30;;;2.30;;
61085;SDS011;46967;48.876;2.136;2023-06-26T05:16:01;10.13;;;2.30;;
61085;SDS011;46967;48.876;2.136;2023-06-26T05:18:26;6.45;;;2.30;;
61085;SDS011;46967;48.876;2.136;2023-06-26T05:20:51;8.57;;;2.67;;
61085;SDS011;46967;48.876;2.136;2023-06-26T05:23:17;9.30;;;2.55;;
61085;SDS011;46967;48.876;2.136;2023-06-26T05:25:43;11.05;;;2.72;;
61085;SDS011;46967;48.876;2.136;2023-06-26T05:28:09;10.88;;;3.45;;
61085;SDS011;46967;48.876;2.136;2023-06-26T05:30:38;11.93;;;2.88;;
61085;SDS011;46967;48.876;2.136;2023-06-26T05:33:03;10.82;;;3.00;;
61085;SDS011;46967;48.876;2.136;2023-06-26T05:35:31;12.95;;;3.50;;
61085;SDS011;46967;48.876;2.136;2023-06-26T05:37:57;10.65;;;3.20;;
61085;SDS011;46967;48.876;2.136;2023-06-26T05:40:23;14.63;;;2.95;;
61085;SDS011;46967;48.876;2.136;2023-06-26T05:42:49;9.50;;;2.88;;
61085;SDS011;46967;48.876;2.136;2023-06-26T05:45:15;10.75;;;2.58;;
61085;SDS011;46967;48.876;2.136;2023-06-26T05:47:40;12.77;;;2.80;;
61085;SDS011;46967;48.876;2.136;2023-06-26T05:50:07;10.57;;;2.60;;
61085;SDS011;46967;48.876;2.136;2023-06-26T05:52:33;12.35;;;2.30;;
61085;SDS011;46967;48.876;2.136;2023-06-26T05:54:59;13.23;;;2.42;;
61085;SDS011;46967;48.876;2.136;2023-06-26T05:57:26;11.10;;;3.10;;
61085;SDS011;46967;48.876;2.136;2023-06-26T05:59:53;10.18;;;2.28;;
61085;SDS011;46967;48.876;2.136;2023-06-26T06:02:18;9.73;;;2.30;;
61085;SDS011;46967;48.876;2.136;2023-06-26T06:04:43;7.88;;;2.20;;
61085;SDS011;46967;48.876;2.136;2023-06-26T06:07:09;8.88;;;2.30;;
61085;SDS011;46967;48.876;2.136;2023-06-26T06:09:34;9.63;;;1.90;;
61085;SDS011;46967;48.876;2.136;2023-06-26T06:11:59;9.73;;;1.95;;
61085;SDS011;46967;48.876;2.136;2023-06-26T06:14:26;7.90;;;2.53;;
61085;SDS011;46967;48.876;2.136;2023-06-26T06:16:53;4.82;;;1.80;;
61085;SDS011;46967;48.876;2.136;2023-06-26T06:19:18;8.85;;;2.00;;
61085;SDS011;46967;48.876;2.136;2023-06-26T06:21:43;9.57;;;2.00;;
61085;SDS011;46967;48.876;2.136;2023-06-26T06:24:09;9.48;;;2.15;;
61085;SDS011;46967;48.876;2.136;2023-06-26T06:26:34;11.82;;;3.13;;
61085;SDS011;46967;48.876;2.136;2023-06-26T06:29:00;9.05;;;2.28;;
61085;SDS011;46967;48.876;2.136;2023-06-26T06:31:25;10.98;;;2.72;;
61085;SDS011;46967;48.876;2.136;2023-06-26T06:33:53;6.90;;;2.50;;
61085;SDS011;46967;48.876;2.136;2023-06-26T06:36:19;10.85;;;2.30;;
61085;SDS011;46967;48.876;2.136;2023-06-26T06:38:45;9.52;;;2.83;;
61085;SDS011;46967;48.876;2.136;2023-06-26T06:41:10;10.45;;;2.47;;
61085;SDS011;46967;48.876;2.136;2023-06-26T06:43:36;11.18;;;2.20;;
61085;SDS011;46967;48.876;2.136;2023-06-26T06:46:01;9.10;;;2.08;;
61085;SDS011;46967;48.876;2.136;2023-06-26T06:48:27;9.20;;;2.83;;
61085;SDS011;46967;48.876;2.136;2023-06-26T06:50:52;10.00;;;2.00;;
61085;SDS011;46967;48.876;2.136;2023-06-26T06:53:18;7.07;;;2.25;;
61085;SDS011;46967;48.876;2.136;2023-06-26T06:55:45;13.75;;;2.47;;
61085;SDS011;46967;48.876;2.136;2023-06-26T06:58:11;10.40;;;2.55;;
61085;SDS011;46967;48.876;2.136;2023-06-26T07:00:36;11.95;;;2.42;;
61085;SDS011;46967;48.876;2.136;2023-06-26T07:03:02;8.18;;;2.03;;
61085;SDS011;46967;48.876;2.136;2023-06-26T07:05:27;9.45;;;2.70;;
61085;SDS011;46967;48.876;2.136;2023-06-26T07:07:53;14.38;;;2.50;;
61085;SDS011;46967;48.876;2.136;2023-06-26T07:10:18;8.13;;;2.30;;
61085;SDS011;46967;48.876;2.136;2023-06-26T07:12:43;6.82;;;2.10;;
61085;SDS011;46967;48.876;2.136;2023-06-26T07:15:09;12.10;;;2.35;;
61085;SDS011;46967;48.876;2.136;2023-06-26T07:17:35;12.68;;;2.90;;
61085;SDS011;46967;48.876;2.136;2023-06-26T07:20:03;12.10;;;2.10;;
61085;SDS011;46967;48.876;2.136;2023-06-26T07:22:32;10.65;;;2.00;;
61085;SDS011;46967;48.876;2.136;2023-06-26T07:24:58;9.25;;;1.67;;
61085;SDS011;46967;48.876;2.136;2023-06-26T07:27:23;9.40;;;1.65;;
61085;SDS011;46967;48.876;2.136;2023-06-26T07:29:49;8.25;;;1.92;;
61085;SDS011;46967;48.876;2.136;2023-06-26T07:32:14;10.70;;;2.08;;
61085;SDS011;46967;48.876;2.136;2023-06-26T07:34:39;8.55;;;2.00;;
61085;SDS011;46967;48.876;2.136;2023-06-26T07:37:05;8.43;;;2.10;;
61085;SDS011;46967;48.876;2.136;2023-06-26T07:39:30;12.32;;;1.98;;
61085;SDS011;46967;48.876;2.136;2023-06-26T07:41:56;9.13;;;2.10;;
61085;SDS011;46967;48.876;2.136;2023-06-26T07:44:23;13.48;;;2.08;;
61085;SDS011;46967;48.876;2.136;2023-06-26T07:46:48;8.73;;;1.80;;
61085;SDS011;46967;48.876;2.136;2023-06-26T07:49:14;5.43;;;1.65;;
61085;SDS011;46967;48.876;2.136;2023-06-26T07:51:39;10.50;;;1.92;;
61085;SDS011;46967;48.876;2.136;2023-06-26T07:54:05;10.43;;;1.77;;
61085;SDS011;46967;48.876;2.136;2023-06-26T07:56:30;7.10;;;1.75;;
61085;SDS011;46967;48.876;2.136;2023-06-26T07:58:55;10.73;;;2.08;;
61085;SDS011;46967;48.876;2.136;2023-06-26T08:01:23;7.38;;;1.80;;
61085;SDS011;46967;48.876;2.136;2023-06-26T08:03:49;5.22;;;2.00;;
61085;SDS011;46967;48.876;2.136;2023-06-26T08:06:14;12.55;;;2.15;;
61085;SDS011;46967;48.876;2.136;2023-06-26T08:08:39;15.77;;;2.13;;
61085;SDS011;46967;48.876;2.136;2023-06-26T08:11:05;10.25;;;1.92;;
61085;SDS011;46967;48.876;2.136;2023-06-26T08:13:30;4.10;;;1.40;;
61085;SDS011;46967;48.876;2.136;2023-06-26T08:15:55;6.47;;;1.77;;
61085;SDS011;46967;48.876;2.136;2023-06-26T08:18:21;4.53;;;1.48;;
61085;SDS011;46967;48.876;2.136;2023-06-26T08:20:46;7.38;;;1.60;;
61085;SDS011;46967;48.876;2.136;2023-06-26T08:23:11;6.75;;;1.75;;
61085;SDS011;46967;48.876;2.136;2023-06-26T08:25:37;5.50;;;1.95;;
61085;SDS011;46967;48.876;2.136;2023-06-26T08:28:02;11.43;;;1.65;;
61085;SDS011;46967;48.876;2.136;2023-06-26T08:30:28;9.38;;;2.22;;
61085;SDS011;46967;48.876;2.136;2023-06-26T08:32:54;6.82;;;1.58;;
61085;SDS011;46967;48.876;2.136;2023-06-26T08:35:20;7.88;;;1.75;;
61085;SDS011;46967;48.876;2.136;2023-06-26T08:37:45;8.05;;;2.00;;
61085;SDS011;46967;48.876;2.136;2023-06-26T08:40:11;8.38;;;1.23;;
61085;SDS011;46967;48.876;2.136;2023-06-26T08:42:38;6.68;;;1.60;;
61085;SDS011;46967;48.876;2.136;2023-06-26T08:45:03;6.78;;;1.60;;
61085;SDS011;46967;48.876;2.136;2023-06-26T08:47:29;8.40;;;1.48;;
61085;SDS011;46967;48.876;2.136;2023-06-26T08:50:01;7.18;;;1.80;;
61085;SDS011;46967;48.876;2.136;2023-06-26T08:55:43;6.00;;;1.45;;
61085;SDS011;46967;48.876;2.136;2023-06-26T08:58:08;5.05;;;1.55;;
61085;SDS011;46967;48.876;2.136;2023-06-26T09:00:34;7.40;;;1.70;;
61085;SDS011;46967;48.876;2.136;2023-06-26T09:03:00;7.82;;;1.50;;
61085;SDS011;46967;48.876;2.136;2023-06-26T09:05:28;9.00;;;1.92;;
61085;SDS011;46967;48.876;2.136;2023-06-26T09:07:53;6.47;;;1.33;;
61085;SDS011;46967;48.876;2.136;2023-06-26T09:10:21;4.55;;;1.48;;
61085;SDS011;46967;48.876;2.136;2023-06-26T09:12:46;6.45;;;1.27;;
61085;SDS011;46967;48.876;2.136;2023-06-26T09:15:14;4.82;;;1.02;;
61085;SDS011;46967;48.876;2.136;2023-06-26T09:17:40;7.07;;;1.17;;
61085;SDS011;46967;48.876;2.136;2023-06-26T09:20:07;7.18;;;1.92;;
61085;SDS011;46967;48.876;2.136;2023-06-26T09:22:33;5.82;;;1.23;;
61085;SDS011;46967;48.876;2.136;2023-06-26T09:25:02;6.38;;;1.23;;
61085;SDS011;46967;48.876;2.136;2023-06-26T09:27:28;6.60;;;1.38;;
61085;SDS011;46967;48.876;2.136;2023-06-26T09:29:53;6.88;;;1.90;;
61085;SDS011;46967;48.876;2.136;2023-06-26T09:32:21;4.72;;;1.27;;
61085;SDS011;46967;48.876;2.136;2023-06-26T09:34:51;5.82;;;1.73;;
61085;SDS011;46967;48.876;2.136;2023-06-26T09:37:18;6.72;;;1.55;;
61085;SDS011;46967;48.876;2.136;2023-06-26T09:39:44;8.00;;;1.52;;
61085;SDS011;46967;48.876;2.136;2023-06-26T09:42:09;6.80;;;1.50;;
61085;SDS011;46967;48.876;2.136;2023-06-26T09:44:34;6.03;;;1.48;;
61085;SDS011;46967;48.876;2.136;2023-06-26T09:47:01;4.25;;;1.23;;
61085;SDS011;46967;48.876;2.136;2023-06-26T09:49:29;6.47;;;1.40;;
61085;SDS011;46967;48.876;2.136;2023-06-26T09:51:54;6.75;;;1.42;;
61085;SDS011;46967;48.876;2.136;2023-06-26T09:54:21;5.18;;;1.52;;
61085;SDS011;46967;48.876;2.136;2023-06-26T09:56:47;3.42;;;1.13;;
61085;SDS011;46967;48.876;2.136;2023-06-26T09:59:12;5.13;;;1.30;;
61085;SDS011;46967;48.876;2.136;2023-06-26T10:01:43;10.75;;;1.73;;
61085;SDS011;46967;48.876;2.136;2023-06-26T10:04:10;5.25;;;1.42;;
61085;SDS011;46967;48.876;2.136;2023-06-26T10:06:36;5.30;;;1.45;;
61085;SDS011;46967;48.876;2.136;2023-06-26T10:09:06;5.93;;;1.38;;
61085;SDS011;46967;48.876;2.136;2023-06-26T10:11:34;5.72;;;1.30;;
61085;SDS011;46967;48.876;2.136;2023-06-26T10:14:11;7.68;;;1.40;;
61085;SDS011;46967;48.876;2.136;2023-06-26T10:16:37;8.40;;;1.48;;
61085;SDS011;46967;48.876;2.136;2023-06-26T10:19:07;4.03;;;1.38;;
61085;SDS011;46967;48.876;2.136;2023-06-26T10:21:35;6.20;;;1.73;;
61085;SDS011;46967;48.876;2.136;2023-06-26T10:24:04;7.67;;;1.60;;
61085;SDS011;46967;48.876;2.136;2023-06-26T10:26:31;4.03;;;1.50;;
61085;SDS011;46967;48.876;2.136;2023-06-26T10:29:02;5.70;;;1.20;;
61085;SDS011;46967;48.876;2.136;2023-06-26T10:31:29;4.97;;;1.55;;
61085;SDS011;46967;48.876;2.136;2023-06-26T10:33:55;6.45;;;1.70;;
61085;SDS011;46967;48.876;2.136;2023-06-26T10:36:27;3.47;;;1.58;;
61085;SDS011;46967;48.876;2.136;2023-06-26T10:38:57;6.38;;;1.40;;
61085;SDS011;46967;48.876;2.136;2023-06-26T10:41:24;5.28;;;1.40;;
61085;SDS011;46967;48.876;2.136;2023-06-26T10:44:06;8.55;;;1.63;;
61085;SDS011;46967;48.876;2.136;2023-06-26T10:46:51;4.13;;;1.88;;
61085;SDS011;46967;48.876;2.136;2023-06-26T10:49:20;3.22;;;1.40;;
61085;SDS011;46967;48.876;2.136;2023-06-26T10:51:50;4.93;;;1.50;;
61085;SDS011;46967;48.876;2.136;2023-06-26T10:54:17;6.50;;;2.30;;
61085;SDS011;46967;48.876;2.136;2023-06-26T10:56:48;7.95;;;1.52;;
61085;SDS011;46967;48.876;2.136;2023-06-26T11:01:43;4.63;;;1.58;;
61085;SDS011;46967;48.876;2.136;2023-06-26T11:04:12;3.03;;;1.30;;
61085;SDS011;46967;48.876;2.136;2023-06-26T11:06:40;5.45;;;1.65;;
61085;SDS011;46967;48.876;2.136;2023-06-26T11:14:20;3.33;;;1.40;;
61085;SDS011;46967;48.876;2.136;2023-06-26T11:16:47;3.53;;;1.40;;
61085;SDS011;46967;48.876;2.136;2023-06-26T11:19:14;5.05;;;1.50;;
61085;SDS011;46967;48.876;2.136;2023-06-26T11:21:41;6.50;;;1.30;;
61085;SDS011;46967;48.876;2.136;2023-06-26T11:24:07;6.68;;;1.63;;
61085;SDS011;46967;48.876;2.136;2023-06-26T11:29:04;4.82;;;1.33;;
61085;SDS011;46967;48.876;2.136;2023-06-26T11:31:34;7.07;;;1.65;;
61085;SDS011;46967;48.876;2.136;2023-06-26T11:34:01;7.07;;;1.67;;
61085;SDS011;46967;48.876;2.136;2023-06-26T11:36:29;5.85;;;1.50;;
61085;SDS011;46967;48.876;2.136;2023-06-26T11:38:59;9.18;;;1.40;;
61085;SDS011;46967;48.876;2.136;2023-06-26T11:41:35;5.85;;;1.70;;
61085;SDS011;46967;48.876;2.136;2023-06-26T11:44:03;5.70;;;1.40;;
61085;SDS011;46967;48.876;2.136;2023-06-26T11:46:30;7.55;;;1.60;;
61085;SDS011;46967;48.876;2.136;2023-06-26T11:48:56;8.30;;;1.52;;
61085;SDS011;46967;48.876;2.136;2023-06-26T11:51:21;7.20;;;1.67;;
61085;SDS011;46967;48.876;2.136;2023-06-26T11:53:47;10.25;;;1.58;;
61085;SDS011;46967;48.876;2.136;2023-06-26T11:56:14;4.18;;;1.42;;
61085;SDS011;46967;48.876;2.136;2023-06-26T12:01:41;5.80;;;1.45;;
61085;SDS011;46967;48.876;2.136;2023-06-26T12:04:10;4.63;;;1.42;;
61085;SDS011;46967;48.876;2.136;2023-06-26T12:06:37;4.90;;;1.30;;
61085;SDS011;46967;48.876;2.136;2023-06-26T12:09:05;4.15;;;1.35;;
61085;SDS011;46967;48.876;2.136;2023-06-26T12:13:59;4.38;;;1.23;;
61085;SDS011;46967;48.876;2.136;2023-06-26T12:16:27;4.50;;;1.23;;
61085;SDS011;46967;48.876;2.136;2023-06-26T12:19:00;17.87;;;1.70;;
61085;SDS011;46967;48.876;2.136;2023-06-26T12:24:07;3.95;;;1.25;;
61085;SDS011;46967;48.876;2.136;2023-06-26T12:26:34;4.40;;;1.50;;
61085;SDS011;46967;48.876;2.136;2023-06-26T12:29:03;4.72;;;1.20;;
61085;SDS011;46967;48.876;2.136;2023-06-26T12:33:57;7.97;;;1.65;;
61085;SDS011;46967;48.876;2.136;2023-06-26T12:36:22;10.50;;;2.30;;
61085;SDS011;46967;48.876;2.136;2023-06-26T12:38:48;7.47;;;3.05;;
61085;SDS011;46967;48.876;2.136;2023-06-26T12:41:14;5.68;;;2.88;;
61085;SDS011;46967;48.876;2.136;2023-06-26T12:43:41;6.82;;;3.17;;
61085;SDS011;46967;48.876;2.136;2023-06-26T12:46:06;5.45;;;2.00;;
61085;SDS011;46967;48.876;2.136;2023-06-26T12:48:36;9.10;;;2.70;;
61085;SDS011;46967;48.876;2.136;2023-06-26T12:51:16;11.15;;;2.67;;
61085;SDS011;46967;48.876;2.136;2023-06-26T12:53:42;8.23;;;2.40;;
61085;SDS011;46967;48.876;2.136;2023-06-26T12:56:08;8.38;;;1.67;;
61085;SDS011;46967;48.876;2.136;2023-06-26T12:58:34;3.78;;;1.50;;
61085;SDS011;46967;48.876;2.136;2023-06-26T13:01:04;4.72;;;1.38;;
61085;SDS011;46967;48.876;2.136;2023-06-26T13:03:35;5.25;;;1.45;;
61085;SDS011;46967;48.876;2.136;2023-06-26T13:06:02;5.15;;;1.45;;
61085;SDS011;46967;48.876;2.136;2023-06-26T13:08:27;6.38;;;1.80;;
61085;SDS011;46967;48.876;2.136;2023-06-26T13:10:54;5.75;;;1.48;;
61085;SDS011;46967;48.876;2.136;2023-06-26T13:13:19;5.30;;;1.40;;
61085;SDS011;46967;48.876;2.136;2023-06-26T13:15:44;5.88;;;1.52;;
61085;SDS011;46967;48.876;2.136;2023-06-26T13:18:09;5.97;;;1.23;;
61085;SDS011;46967;48.876;2.136;2023-06-26T13:20:35;5.38;;;1.50;;
61085;SDS011;46967;48.876;2.136;2023-06-26T13:23:00;8.07;;;1.80;;
61085;SDS011;46967;48.876;2.136;2023-06-26T13:25:26;9.40;;;1.83;;
61085;SDS011;46967;48.876;2.136;2023-06-26T13:27:51;6.45;;;1.50;;
61085;SDS011;46967;48.876;2.136;2023-06-26T13:30:16;4.40;;;1.20;;
61085;SDS011;46967;48.876;2.136;2023-06-26T13:32:42;5.60;;;1.30;;
61085;SDS011;46967;48.876;2.136;2023-06-26T13:35:08;12.40;;;2.05;;
61085;SDS011;46967;48.876;2.136;2023-06-26T13:37:34;5.22;;;1.45;;
61085;SDS011;46967;48.876;2.136;2023-06-26T13:40:00;5.93;;;1.30;;
61085;SDS011;46967;48.876;2.136;2023-06-26T13:42:27;5.70;;;1.17;;
61085;SDS011;46967;48.876;2.136;2023-06-26T13:44:53;8.60;;;1.42;;
61085;SDS011;46967;48.876;2.136;2023-06-26T13:47:18;4.32;;;1.20;;
61085;SDS011;46967;48.876;2.136;2023-06-26T13:49:44;7.90;;;1.58;;
61085;SDS011;46967;48.876;2.136;2023-06-26T13:52:09;8.35;;;1.52;;
61085;SDS011;46967;48.876;2.136;2023-06-26T13:54:37;4.00;;;1.33;;
61085;SDS011;46967;48.876;2.136;2023-06-26T13:57:05;4.28;;;1.30;;
61085;SDS011;46967;48.876;2.136;2023-06-26T13:59:31;5.70;;;1.25;;
61085;SDS011;46967;48.876;2.136;2023-06-26T14:01:57;8.40;;;1.30;;
61085;SDS011;46967;48.876;2.136;2023-06-26T14:04:22;3.15;;;1.10;;
61085;SDS011;46967;48.876;2.136;2023-06-26T14:06:47;4.68;;;1.95;;
61085;SDS011;46967;48.876;2.136;2023-06-26T14:09:13;5.07;;;1.20;;
61085;SDS011;46967;48.876;2.136;2023-06-26T14:11:38;4.85;;;1.50;;
61085;SDS011;46967;48.876;2.136;2023-06-26T14:14:04;5.20;;;1.52;;
61085;SDS011;46967;48.876;2.136;2023-06-26T14:16:29;5.78;;;1.58;;
61085;SDS011;46967;48.876;2.136;2023-06-26T14:18:54;7.18;;;1.48;;
61085;SDS011;46967;48.876;2.136;2023-06-26T14:21:20;6.32;;;1.40;;
61085;SDS011;46967;48.876;2.136;2023-06-26T14:23:45;2.88;;;0.98;;
61085;SDS011;46967;48.876;2.136;2023-06-26T14:26:11;5.47;;;1.10;;
61085;SDS011;46967;48.876;2.136;2023-06-26T14:28:37;8.88;;;1.20;;
61085;SDS011;46967;48.876;2.136;2023-06-26T14:33:31;4.90;;;1.30;;
61085;SDS011;46967;48.876;2.136;2023-06-26T14:35:56;4.88;;;1.10;;
61085;SDS011;46967;48.876;2.136;2023-06-26T14:38:21;8.95;;;1.40;;
61085;SDS011;46967;48.876;2.136;2023-06-26T14:40:47;9.15;;;1.30;;
61085;SDS011;46967;48.876;2.136;2023-06-26T14:43:12;11.45;;;1.20;;
61085;SDS011;46967;48.876;2.136;2023-06-26T14:45:38;3.53;;;1.45;;
61085;SDS011;46967;48.876;2.136;2023-06-26T14:48:03;4.55;;;1.50;;
61085;SDS011;46967;48.876;2.136;2023-06-26T14:50:28;5.13;;;1.25;;
61085;SDS011;46967;48.876;2.136;2023-06-26T14:52:54;7.15;;;1.15;;
61085;SDS011;46967;48.876;2.136;2023-06-26T14:55:19;6.60;;;1.88;;
61085;SDS011;46967;48.876;2.136;2023-06-26T14:57:45;6.72;;;1.35;;
61085;SDS011;46967;48.876;2.136;2023-06-26T15:00:10;9.35;;;1.10;;
61085;SDS011;46967;48.876;2.136;2023-06-26T15:02:36;7.32;;;1.30;;
61085;SDS011;46967;48.876;2.136;2023-06-26T15:05:01;7.10;;;1.42;;
61085;SDS011;46967;48.876;2.136;2023-06-26T15:07:27;4.78;;;1.25;;
61085;SDS011;46967;48.876;2.136;2023-06-26T15:09:52;6.13;;;1.73;;
61085;SDS011;46967;48.876;2.136;2023-06-26T15:12:18;4.43;;;1.13;;
61085;SDS011;46967;48.876;2.136;2023-06-26T15:14:43;6.75;;;1.48;;
61085;SDS011;46967;48.876;2.136;2023-06-26T15:17:08;3.53;;;1.23;;